BCS544 LGAV-LBSF
Flight info
| Callsign | BCS544 |
|---|---|
| Flight time | N/A |
| Altitude | 29000 |
| Route | KRO UT162 KOROS/N0473F300 UN133 GIKAS/N0465F320 UN133 PEREN UL863 EVIVI Y94 VANET |
| Aircraft | B752/M-SDE2E3FGHIJ3J4J7RWXY/LB1 |
Departure
| Time | 2026-05-04 18:31 |
|---|---|
| Airport | Athens Eleftherios Venizelos International Airport (LGAV) |
Arrival
| Time | N/A |
|---|---|
| Airport | Sofia Airport (LBSF) |
| Time | Latitude | Longitude | Altitude | Speed | Heading |
|---|---|---|---|---|---|
| 2026-05-04 17:58 | 37.92768 | 23.94087 | 277 ft | 0 kts | 36° |
| 2026-05-04 18:21 | 37.92768 | 23.94086 | 277 ft | 1 kts | 36° |
| 2026-05-04 18:21 | 37.92756 | 23.94075 | 277 ft | 2 kts | 36° |
| 2026-05-04 18:21 | 37.92744 | 23.94064 | 276 ft | 2 kts | 36° |
| 2026-05-04 18:21 | 37.92731 | 23.94052 | 276 ft | 3 kts | 35° |
| 2026-05-04 18:22 | 37.92720 | 23.94033 | 276 ft | 1 kts | 103° |
| 2026-05-04 18:22 | 37.92724 | 23.94014 | 276 ft | 2 kts | 103° |
| 2026-05-04 18:22 | 37.92728 | 23.94002 | 276 ft | 1 kts | 127° |
| 2026-05-04 18:22 | 37.92723 | 23.94012 | 276 ft | 2 kts | 124° |
| 2026-05-04 18:23 | 37.92720 | 23.94018 | 276 ft | 0 kts | 124° |
| 2026-05-04 18:27 | 37.92719 | 23.94019 | 276 ft | 2 kts | 124° |
| 2026-05-04 18:27 | 37.92690 | 23.94069 | 277 ft | 16 kts | 128° |
| 2026-05-04 18:27 | 37.92637 | 23.94155 | 277 ft | 1 kts | 136° |
| 2026-05-04 18:28 | 37.92619 | 23.94154 | 277 ft | 4 kts | 207° |
| 2026-05-04 18:28 | 37.92579 | 23.94119 | 277 ft | 8 kts | 216° |
| 2026-05-04 18:28 | 37.92519 | 23.94070 | 276 ft | 11 kts | 197° |
| 2026-05-04 18:28 | 37.92463 | 23.94105 | 276 ft | 9 kts | 128° |
| 2026-05-04 18:29 | 37.92430 | 23.94161 | 277 ft | 8 kts | 127° |
| 2026-05-04 18:29 | 37.92412 | 23.94263 | 277 ft | 17 kts | 84° |
| 2026-05-04 18:29 | 37.92472 | 23.94435 | 278 ft | 25 kts | 40° |
| 2026-05-04 18:29 | 37.92518 | 23.94480 | 278 ft | 5 kts | 38° |
| 2026-05-04 18:30 | 37.92607 | 23.94567 | 279 ft | 9 kts | 35° |
| 2026-05-04 18:30 | 37.92840 | 23.94789 | 283 ft | 97 kts | 38° |
| 2026-05-04 18:30 | 37.93651 | 23.95560 | 567 ft | 182 kts | 37° |
| 2026-05-04 18:31 | 37.94795 | 23.96689 | 1437 ft | 243 kts | 40° |
| 2026-05-04 18:31 | 37.96275 | 23.98224 | 2176 ft | 316 kts | 36° |
| 2026-05-04 18:31 | 37.98071 | 23.99942 | 3493 ft | 321 kts | 35° |
| 2026-05-04 18:31 | 37.99757 | 24.01559 | 5264 ft | 307 kts | 35° |
| 2026-05-04 18:32 | 38.01379 | 24.03112 | 6878 ft | 287 kts | 34° |
| 2026-05-04 18:32 | 38.02918 | 24.04604 | 7128 ft | 272 kts | 36° |
| 2026-05-04 18:32 | 38.04369 | 24.06010 | 7115 ft | 256 kts | 34° |
| 2026-05-04 18:32 | 38.05782 | 24.07326 | 7121 ft | 250 kts | 33° |
| 2026-05-04 18:33 | 38.07214 | 24.08646 | 7132 ft | 256 kts | 33° |
| 2026-05-04 18:33 | 38.08651 | 24.09978 | 7121 ft | 256 kts | 34° |
| 2026-05-04 18:33 | 38.10099 | 24.11326 | 7126 ft | 255 kts | 34° |
| 2026-05-04 18:33 | 38.11533 | 24.12662 | 7138 ft | 257 kts | 34° |
| 2026-05-04 18:34 | 38.12923 | 24.13964 | 7658 ft | 249 kts | 33° |
| 2026-05-04 18:34 | 38.14349 | 24.15294 | 8303 ft | 261 kts | 33° |
| 2026-05-04 18:34 | 38.15806 | 24.16658 | 8934 ft | 263 kts | 33° |
| 2026-05-04 18:34 | 38.17288 | 24.18047 | 9569 ft | 265 kts | 33° |
| 2026-05-04 18:35 | 38.18774 | 24.19439 | 10196 ft | 268 kts | 33° |
| 2026-05-04 18:35 | 38.20276 | 24.20847 | 10822 ft | 271 kts | 33° |
| 2026-05-04 18:35 | 38.21783 | 24.22261 | 11443 ft | 272 kts | 34° |
| 2026-05-04 18:35 | 38.23309 | 24.23692 | 12067 ft | 276 kts | 34° |
| 2026-05-04 18:36 | 38.24863 | 24.25153 | 12690 ft | 278 kts | 34° |
| 2026-05-04 18:36 | 38.26401 | 24.26597 | 13301 ft | 280 kts | 34° |
| 2026-05-04 18:36 | 38.27968 | 24.28071 | 13922 ft | 282 kts | 34° |
| 2026-05-04 18:36 | 38.29556 | 24.29565 | 14549 ft | 285 kts | 34° |
| 2026-05-04 18:37 | 38.31162 | 24.31077 | 15175 ft | 289 kts | 34° |
| 2026-05-04 18:37 | 38.32768 | 24.32591 | 15795 ft | 291 kts | 35° |
| 2026-05-04 18:37 | 38.34405 | 24.34149 | 16421 ft | 295 kts | 33° |
| 2026-05-04 18:37 | 38.36228 | 24.35310 | 17049 ft | 296 kts | 15° |
| 2026-05-04 18:38 | 38.38250 | 24.35618 | 17685 ft | 301 kts | 357° |
| 2026-05-04 18:38 | 38.40305 | 24.35018 | 18335 ft | 308 kts | 339° |
| 2026-05-04 18:38 | 38.42139 | 24.33589 | 18980 ft | 313 kts | 326° |
| 2026-05-04 18:38 | 38.43964 | 24.32124 | 19605 ft | 316 kts | 336° |
| 2026-05-04 18:39 | 38.45986 | 24.31027 | 20235 ft | 318 kts | 342° |
| 2026-05-04 18:39 | 38.48109 | 24.30128 | 20869 ft | 321 kts | 345° |
| 2026-05-04 18:39 | 38.50259 | 24.29351 | 21494 ft | 324 kts | 347° |
| 2026-05-04 18:39 | 38.52461 | 24.28697 | 22120 ft | 328 kts | 348° |
| 2026-05-04 18:40 | 38.54686 | 24.27992 | 22746 ft | 333 kts | 348° |
| 2026-05-04 18:40 | 38.56952 | 24.27325 | 23373 ft | 338 kts | 350° |
| 2026-05-04 18:40 | 38.59275 | 24.26769 | 24022 ft | 341 kts | 351° |
| 2026-05-04 18:40 | 38.61597 | 24.26188 | 24671 ft | 344 kts | 350° |
| 2026-05-04 18:41 | 38.63954 | 24.25570 | 25327 ft | 348 kts | 350° |
| 2026-05-04 18:41 | 38.66341 | 24.24930 | 25996 ft | 352 kts | 349° |
| 2026-05-04 18:41 | 38.68731 | 24.24279 | 26663 ft | 355 kts | 349° |
| 2026-05-04 18:41 | 38.71140 | 24.23618 | 27328 ft | 357 kts | 350° |
| 2026-05-04 18:42 | 38.73570 | 24.22949 | 27708 ft | 368 kts | 349° |
| 2026-05-04 18:42 | 38.76151 | 24.22218 | 27720 ft | 388 kts | 348° |
| 2026-05-04 18:42 | 38.78825 | 24.21369 | 27739 ft | 407 kts | 347° |
| 2026-05-04 18:42 | 38.81651 | 24.20510 | 27754 ft | 426 kts | 348° |
| 2026-05-04 18:43 | 38.84580 | 24.19655 | 27764 ft | 443 kts | 349° |
| 2026-05-04 18:43 | 38.87648 | 24.18778 | 27770 ft | 460 kts | 349° |
| 2026-05-04 18:43 | 38.90825 | 24.17920 | 27775 ft | 475 kts | 349° |
| 2026-05-04 18:43 | 38.94112 | 24.17036 | 27794 ft | 489 kts | 349° |
| 2026-05-04 18:44 | 38.97465 | 24.16120 | 28354 ft | 491 kts | 349° |
| 2026-05-04 18:44 | 38.99661 | 24.15536 | 28810 ft | 489 kts | 349° |
| 2026-05-04 18:44 | 39.04104 | 24.14313 | 29634 ft | 489 kts | 349° |
| 2026-05-04 18:44 | 39.07400 | 24.13367 | 30135 ft | 485 kts | 348° |
| 2026-05-04 18:45 | 39.10681 | 24.12398 | 30097 ft | 478 kts | 348° |
| 2026-05-04 18:45 | 39.17141 | 24.10530 | 30108 ft | 475 kts | 349° |
| 2026-05-04 18:46 | 39.23595 | 24.08752 | 30100 ft | 475 kts | 349° |
| 2026-05-04 18:46 | 39.30034 | 24.06987 | 30097 ft | 476 kts | 349° |
| 2026-05-04 18:47 | 39.36535 | 24.05086 | 30095 ft | 477 kts | 349° |
| 2026-05-04 18:47 | 39.43040 | 24.03216 | 30093 ft | 476 kts | 349° |
| 2026-05-04 18:48 | 39.49474 | 24.01381 | 30090 ft | 475 kts | 349° |
| 2026-05-04 18:48 | 39.55910 | 23.99551 | 30088 ft | 477 kts | 349° |
| 2026-05-04 18:49 | 39.62413 | 23.97701 | 30091 ft | 476 kts | 349° |
| 2026-05-04 18:49 | 39.68847 | 23.95878 | 30082 ft | 477 kts | 349° |
| 2026-05-04 18:50 | 39.75331 | 23.94116 | 30080 ft | 478 kts | 349° |
| 2026-05-04 18:50 | 39.81809 | 23.92301 | 30082 ft | 475 kts | 349° |
| 2026-05-04 18:51 | 39.88279 | 23.90463 | 30075 ft | 478 kts | 349° |
| 2026-05-04 18:51 | 39.94770 | 23.88607 | 30069 ft | 478 kts | 349° |
| 2026-05-04 18:52 | 40.01223 | 23.86739 | 30071 ft | 478 kts | 349° |
| 2026-05-04 18:52 | 40.07702 | 23.84789 | 30072 ft | 478 kts | 349° |
| 2026-05-04 18:53 | 40.14207 | 23.82878 | 30073 ft | 479 kts | 349° |
| 2026-05-04 18:53 | 40.20676 | 23.80994 | 30074 ft | 478 kts | 349° |
| 2026-05-04 18:54 | 40.50938 | 23.72187 | 30098 ft | 478 kts | 349° |
| 2026-05-04 18:54 | 40.76520 | 23.64750 | 30086 ft | 481 kts | 349° |
| 2026-05-04 18:55 | 40.83008 | 23.62861 | 30086 ft | 482 kts | 348° |
| 2026-05-04 18:55 | 40.89584 | 23.60869 | 29297 ft | 485 kts | 348° |
| 2026-05-04 18:55 | 40.92815 | 23.59898 | 28628 ft | 473 kts | 348° |
| 2026-05-04 18:56 | 40.95979 | 23.58950 | 27954 ft | 461 kts | 349° |
| 2026-05-04 18:56 | 40.99096 | 23.58031 | 27280 ft | 454 kts | 349° |
| 2026-05-04 18:56 | 41.02146 | 23.57146 | 26620 ft | 454 kts | 349° |
| 2026-05-04 18:56 | 41.05281 | 23.56579 | 25949 ft | 451 kts | 358° |
| 2026-05-04 18:57 | 41.08401 | 23.56325 | 25293 ft | 460 kts | 357° |
| 2026-05-04 18:57 | 41.11639 | 23.55997 | 24635 ft | 470 kts | 356° |
| 2026-05-04 18:57 | 41.14854 | 23.55643 | 23987 ft | 462 kts | 356° |
| 2026-05-04 18:57 | 41.18015 | 23.55280 | 23339 ft | 454 kts | 356° |
| 2026-05-04 18:58 | 41.21153 | 23.54910 | 22697 ft | 451 kts | 356° |
| 2026-05-04 18:58 | 41.24265 | 23.54534 | 22060 ft | 448 kts | 356° |
| 2026-05-04 18:58 | 41.27359 | 23.54155 | 21419 ft | 443 kts | 356° |
| 2026-05-04 18:58 | 41.30401 | 23.53779 | 20793 ft | 439 kts | 356° |
| 2026-05-04 18:59 | 41.33392 | 23.53407 | 20166 ft | 434 kts | 356° |
| 2026-05-04 18:59 | 41.36398 | 23.53032 | 19531 ft | 430 kts | 356° |
| 2026-05-04 18:59 | 41.39342 | 23.52664 | 18907 ft | 427 kts | 356° |
| 2026-05-04 18:59 | 41.42304 | 23.52327 | 18276 ft | 423 kts | 357° |
| 2026-05-04 19:00 | 41.45213 | 23.52011 | 17664 ft | 419 kts | 357° |
| 2026-05-04 19:00 | 41.48092 | 23.51678 | 17158 ft | 412 kts | 356° |
| 2026-05-04 19:00 | 41.50897 | 23.51342 | 17115 ft | 405 kts | 357° |
| 2026-05-04 19:00 | 41.53767 | 23.50993 | 17128 ft | 418 kts | 356° |
| 2026-05-04 19:01 | 41.56648 | 23.50637 | 17128 ft | 416 kts | 356° |
| 2026-05-04 19:01 | 41.59535 | 23.50276 | 17137 ft | 415 kts | 356° |
| 2026-05-04 19:01 | 41.62430 | 23.49912 | 17140 ft | 416 kts | 356° |
| 2026-05-04 19:01 | 41.65274 | 23.49554 | 17138 ft | 415 kts | 356° |
| 2026-05-04 19:02 | 41.68151 | 23.48982 | 17140 ft | 417 kts | 349° |
| 2026-05-04 19:02 | 41.71010 | 23.48308 | 17143 ft | 417 kts | 356° |
| 2026-05-04 19:02 | 41.73886 | 23.48302 | 17143 ft | 414 kts | 7° |
| 2026-05-04 19:02 | 41.76712 | 23.48988 | 17133 ft | 413 kts | 17° |
| 2026-05-04 19:03 | 41.79391 | 23.50347 | 17128 ft | 411 kts | 27° |
| 2026-05-04 19:03 | 41.81825 | 23.52325 | 17131 ft | 410 kts | 37° |
| 2026-05-04 19:03 | 41.83981 | 23.54828 | 17138 ft | 410 kts | 42° |
| 2026-05-04 19:03 | 41.86202 | 23.57191 | 17134 ft | 410 kts | 34° |
| 2026-05-04 19:04 | 41.88661 | 23.59178 | 17140 ft | 412 kts | 29° |
| 2026-05-04 19:04 | 41.91211 | 23.60925 | 17140 ft | 411 kts | 26° |
| 2026-05-04 19:04 | 41.93788 | 23.62521 | 17143 ft | 411 kts | 25° |
| 2026-05-04 19:04 | 41.96433 | 23.64055 | 17144 ft | 411 kts | 24° |
| 2026-05-04 19:05 | 41.99049 | 23.65515 | 17140 ft | 412 kts | 23° |
| 2026-05-04 19:05 | 42.01744 | 23.66981 | 17145 ft | 411 kts | 22° |
| 2026-05-04 19:05 | 42.04396 | 23.68402 | 17143 ft | 411 kts | 22° |
| 2026-05-04 19:05 | 42.07039 | 23.69803 | 17145 ft | 410 kts | 22° |
| 2026-05-04 19:06 | 42.09698 | 23.71205 | 17144 ft | 410 kts | 22° |
| 2026-05-04 19:06 | 42.12333 | 23.72590 | 17146 ft | 410 kts | 22° |
| 2026-05-04 19:06 | 42.14996 | 23.73993 | 17147 ft | 410 kts | 22° |
| 2026-05-04 19:06 | 42.17637 | 23.75386 | 17146 ft | 409 kts | 22° |
| 2026-05-04 19:07 | 42.20290 | 23.76773 | 17149 ft | 410 kts | 22° |
| 2026-05-04 19:07 | 42.22974 | 23.78180 | 16990 ft | 414 kts | 22° |
| 2026-05-04 19:07 | 42.25638 | 23.79577 | 16378 ft | 412 kts | 22° |
| 2026-05-04 19:07 | 42.28274 | 23.80961 | 15760 ft | 401 kts | 22° |
| 2026-05-04 19:08 | 42.30842 | 23.82311 | 15150 ft | 393 kts | 22° |
| 2026-05-04 19:08 | 42.33380 | 23.83646 | 14531 ft | 389 kts | 22° |
| 2026-05-04 19:08 | 42.35896 | 23.84925 | 13920 ft | 387 kts | 22° |
| 2026-05-04 19:08 | 42.38372 | 23.86194 | 13293 ft | 383 kts | 22° |
| 2026-05-04 19:09 | 42.40836 | 23.87470 | 12519 ft | 374 kts | 22° |
| 2026-05-04 19:09 | 42.43140 | 23.88670 | 11705 ft | 336 kts | 23° |
| 2026-05-04 19:09 | 42.45239 | 23.89707 | 10946 ft | 309 kts | 20° |
| 2026-05-04 19:09 | 42.47198 | 23.90561 | 10197 ft | 289 kts | 20° |
| 2026-05-04 19:10 | 42.49056 | 23.91370 | 9444 ft | 275 kts | 20° |
| 2026-05-04 19:10 | 42.50832 | 23.92138 | 8691 ft | 265 kts | 19° |
| 2026-05-04 19:10 | 42.52557 | 23.92879 | 8133 ft | 249 kts | 19° |
| 2026-05-04 19:10 | 42.54113 | 23.93542 | 8106 ft | 220 kts | 19° |
| 2026-05-04 19:11 | 42.55497 | 23.94124 | 8111 ft | 200 kts | 19° |
| 2026-05-04 19:11 | 42.56820 | 23.94678 | 8138 ft | 205 kts | 19° |
| 2026-05-04 19:11 | 42.58210 | 23.95264 | 8130 ft | 208 kts | 19° |
| 2026-05-04 19:11 | 42.59562 | 23.95896 | 8128 ft | 205 kts | 22° |
| 2026-05-04 19:12 | 42.60892 | 23.96585 | 8129 ft | 206 kts | 17° |
| 2026-05-04 19:12 | 42.63797 | 23.95592 | 6630 ft | 255 kts | 319° |
| 2026-05-04 19:12 | 42.64697 | 23.93537 | 6026 ft | 252 kts | 285° |
| 2026-05-04 19:13 | 42.64764 | 23.91288 | 6007 ft | 229 kts | 270° |
| 2026-05-04 19:13 | 42.64765 | 23.89270 | 5995 ft | 201 kts | 289° |
| 2026-05-04 19:13 | 42.65207 | 23.87562 | 6013 ft | 186 kts | 295° |
| 2026-05-04 19:13 | 42.65617 | 23.85930 | 6011 ft | 183 kts | 293° |
| 2026-05-04 19:14 | 42.66005 | 23.84259 | 6021 ft | 187 kts | 292° |
| 2026-05-04 19:14 | 42.66387 | 23.82553 | 6020 ft | 191 kts | 291° |
| 2026-05-04 19:14 | 42.66762 | 23.80792 | 6026 ft | 198 kts | 290° |
| 2026-05-04 19:14 | 42.67146 | 23.79002 | 6012 ft | 197 kts | 290° |
| 2026-05-04 19:15 | 42.67477 | 23.77182 | 6007 ft | 198 kts | 281° |
| 2026-05-04 19:15 | 42.67600 | 23.75333 | 6013 ft | 200 kts | 279° |
| 2026-05-04 19:15 | 42.67724 | 23.73447 | 6008 ft | 200 kts | 280° |
| 2026-05-04 19:15 | 42.67857 | 23.71558 | 6003 ft | 200 kts | 281° |
| 2026-05-04 19:16 | 42.67988 | 23.69675 | 6004 ft | 200 kts | 280° |
| 2026-05-04 19:16 | 42.68102 | 23.67763 | 5731 ft | 211 kts | 278° |
| 2026-05-04 19:16 | 42.68192 | 23.65756 | 5357 ft | 216 kts | 277° |
| 2026-05-04 19:16 | 42.68284 | 23.63739 | 5175 ft | 210 kts | 277° |
| 2026-05-04 19:17 | 42.68374 | 23.61756 | 4870 ft | 213 kts | 277° |
| 2026-05-04 19:17 | 42.68433 | 23.59723 | 4473 ft | 218 kts | 279° |
| 2026-05-04 19:17 | 42.68639 | 23.57735 | 3825 ft | 210 kts | 280° |
| 2026-05-04 19:17 | 42.68796 | 23.55906 | 3567 ft | 179 kts | 276° |
| 2026-05-04 19:18 | 42.68876 | 23.54399 | 3577 ft | 146 kts | 279° |
| 2026-05-04 19:18 | 42.68989 | 23.53089 | 4235 ft | 137 kts | 279° |
| 2026-05-04 19:18 | 42.69065 | 23.51957 | 5329 ft | 131 kts | 283° |
| 2026-05-04 19:18 | 42.69254 | 23.50519 | 5104 ft | 164 kts | 281° |
| 2026-05-04 19:19 | 42.69155 | 23.49145 | 5008 ft | 153 kts | 253° |